sensor_id;sensor_type;location;lat;lon;timestamp;P1;durP1;ratioP1;P2;durP2;ratioP2
20421;SDS011;10370;53.102;18.034;2024-02-23T00:01:54;25.00;;;12.23;;
20421;SDS011;10370;53.102;18.034;2024-02-23T00:07:17;20.70;;;11.80;;
20421;SDS011;10370;53.102;18.034;2024-02-23T00:12:40;19.23;;;11.68;;
20421;SDS011;10370;53.102;18.034;2024-02-23T00:18:05;21.45;;;12.50;;
20421;SDS011;10370;53.102;18.034;2024-02-23T00:23:29;18.45;;;11.35;;
20421;SDS011;10370;53.102;18.034;2024-02-23T00:28:52;19.92;;;11.00;;
20421;SDS011;10370;53.102;18.034;2024-02-23T00:34:16;21.48;;;11.45;;
20421;SDS011;10370;53.102;18.034;2024-02-23T00:39:41;22.73;;;12.15;;
20421;SDS011;10370;53.102;18.034;2024-02-23T00:45:04;22.30;;;11.20;;
20421;SDS011;10370;53.102;18.034;2024-02-23T00:50:27;20.83;;;11.55;;
20421;SDS011;10370;53.102;18.034;2024-02-23T00:55:51;21.20;;;11.55;;
20421;SDS011;10370;53.102;18.034;2024-02-23T01:01:13;22.42;;;10.93;;
20421;SDS011;10370;53.102;18.034;2024-02-23T01:06:36;19.77;;;11.40;;
20421;SDS011;10370;53.102;18.034;2024-02-23T01:11:59;18.80;;;11.25;;
20421;SDS011;10370;53.102;18.034;2024-02-23T01:17:22;21.58;;;11.20;;
20421;SDS011;10370;53.102;18.034;2024-02-23T01:22:45;22.50;;;11.52;;
20421;SDS011;10370;53.102;18.034;2024-02-23T01:28:08;19.23;;;11.00;;
20421;SDS011;10370;53.102;18.034;2024-02-23T01:33:31;20.50;;;11.07;;
20421;SDS011;10370;53.102;18.034;2024-02-23T01:38:54;17.88;;;10.80;;
20421;SDS011;10370;53.102;18.034;2024-02-23T01:44:16;21.15;;;12.63;;
20421;SDS011;10370;53.102;18.034;2024-02-23T01:49:39;21.10;;;11.00;;
20421;SDS011;10370;53.102;18.034;2024-02-23T01:55:05;22.23;;;11.55;;
20421;SDS011;10370;53.102;18.034;2024-02-23T02:00:28;19.10;;;11.35;;
20421;SDS011;10370;53.102;18.034;2024-02-23T02:05:56;19.40;;;10.50;;
20421;SDS011;10370;53.102;18.034;2024-02-23T02:11:22;18.02;;;11.27;;
20421;SDS011;10370;53.102;18.034;2024-02-23T02:16:46;19.75;;;10.52;;
20421;SDS011;10370;53.102;18.034;2024-02-23T02:22:08;19.58;;;10.77;;
20421;SDS011;10370;53.102;18.034;2024-02-23T02:27:34;17.67;;;11.07;;
20421;SDS011;10370;53.102;18.034;2024-02-23T02:33:00;16.63;;;10.23;;
20421;SDS011;10370;53.102;18.034;2024-02-23T02:38:24;16.85;;;10.00;;
20421;SDS011;10370;53.102;18.034;2024-02-23T02:43:47;17.02;;;10.30;;
20421;SDS011;10370;53.102;18.034;2024-02-23T02:49:22;17.95;;;9.55;;
20421;SDS011;10370;53.102;18.034;2024-02-23T02:54:45;16.67;;;9.48;;
20421;SDS011;10370;53.102;18.034;2024-02-23T03:00:09;20.30;;;10.40;;
20421;SDS011;10370;53.102;18.034;2024-02-23T03:05:33;15.32;;;9.68;;
20421;SDS011;10370;53.102;18.034;2024-02-23T03:10:58;16.73;;;9.70;;
20421;SDS011;10370;53.102;18.034;2024-02-23T03:16:21;14.45;;;8.82;;
20421;SDS011;10370;53.102;18.034;2024-02-23T03:21:52;13.30;;;8.98;;
20421;SDS011;10370;53.102;18.034;2024-02-23T03:27:17;13.70;;;8.68;;
20421;SDS011;10370;53.102;18.034;2024-02-23T03:32:41;15.63;;;9.27;;
20421;SDS011;10370;53.102;18.034;2024-02-23T03:38:07;13.35;;;8.50;;
20421;SDS011;10370;53.102;18.034;2024-02-23T03:43:30;15.75;;;8.85;;
20421;SDS011;10370;53.102;18.034;2024-02-23T03:48:55;13.25;;;8.82;;
20421;SDS011;10370;53.102;18.034;2024-02-23T03:54:19;12.75;;;8.27;;
20421;SDS011;10370;53.102;18.034;2024-02-23T03:59:51;12.52;;;7.65;;
20421;SDS011;10370;53.102;18.034;2024-02-23T04:05:15;12.23;;;7.50;;
20421;SDS011;10370;53.102;18.034;2024-02-23T04:10:38;11.25;;;6.15;;
20421;SDS011;10370;53.102;18.034;2024-02-23T04:16:01;10.40;;;6.25;;
20421;SDS011;10370;53.102;18.034;2024-02-23T04:21:30;10.18;;;5.85;;
20421;SDS011;10370;53.102;18.034;2024-02-23T04:26:53;9.77;;;5.22;;
20421;SDS011;10370;53.102;18.034;2024-02-23T04:32:18;7.90;;;4.82;;
20421;SDS011;10370;53.102;18.034;2024-02-23T04:37:44;9.13;;;4.68;;
20421;SDS011;10370;53.102;18.034;2024-02-23T04:43:13;6.88;;;4.20;;
20421;SDS011;10370;53.102;18.034;2024-02-23T04:48:36;6.22;;;3.97;;
20421;SDS011;10370;53.102;18.034;2024-02-23T04:53:59;5.13;;;3.45;;
20421;SDS011;10370;53.102;18.034;2024-02-23T04:59:21;8.38;;;3.63;;
20421;SDS011;10370;53.102;18.034;2024-02-23T05:04:47;5.18;;;3.30;;
20421;SDS011;10370;53.102;18.034;2024-02-23T05:10:11;6.05;;;3.05;;
20421;SDS011;10370;53.102;18.034;2024-02-23T05:15:37;4.05;;;2.97;;
20421;SDS011;10370;53.102;18.034;2024-02-23T05:21:11;5.18;;;3.28;;
20421;SDS011;10370;53.102;18.034;2024-02-23T05:26:34;5.00;;;3.33;;
20421;SDS011;10370;53.102;18.034;2024-02-23T05:32:00;6.28;;;2.78;;
20421;SDS011;10370;53.102;18.034;2024-02-23T05:37:26;4.85;;;2.90;;
20421;SDS011;10370;53.102;18.034;2024-02-23T05:42:50;4.28;;;2.63;;
20421;SDS011;10370;53.102;18.034;2024-02-23T05:48:17;4.25;;;2.80;;
20421;SDS011;10370;53.102;18.034;2024-02-23T05:53:41;5.95;;;2.65;;
20421;SDS011;10370;53.102;18.034;2024-02-23T05:59:04;7.40;;;2.60;;
20421;SDS011;10370;53.102;18.034;2024-02-23T06:04:30;3.13;;;2.55;;
20421;SDS011;10370;53.102;18.034;2024-02-23T06:09:53;4.13;;;2.60;;
20421;SDS011;10370;53.102;18.034;2024-02-23T06:15:19;3.45;;;2.60;;
20421;SDS011;10370;53.102;18.034;2024-02-23T06:20:42;4.70;;;2.70;;
20421;SDS011;10370;53.102;18.034;2024-02-23T06:26:15;3.30;;;2.30;;
20421;SDS011;10370;53.102;18.034;2024-02-23T06:31:37;3.22;;;2.17;;
20421;SDS011;10370;53.102;18.034;2024-02-23T06:37:03;3.30;;;2.30;;
20421;SDS011;10370;53.102;18.034;2024-02-23T06:42:26;3.90;;;2.13;;
20421;SDS011;10370;53.102;18.034;2024-02-23T06:47:49;3.42;;;2.20;;
20421;SDS011;10370;53.102;18.034;2024-02-23T06:53:11;2.95;;;2.38;;
20421;SDS011;10370;53.102;18.034;2024-02-23T06:58:34;3.03;;;2.05;;
20421;SDS011;10370;53.102;18.034;2024-02-23T07:03:57;3.53;;;1.83;;
20421;SDS011;10370;53.102;18.034;2024-02-23T07:09:20;2.63;;;1.67;;
20421;SDS011;10370;53.102;18.034;2024-02-23T07:14:43;4.53;;;2.10;;
20421;SDS011;10370;53.102;18.034;2024-02-23T07:20:06;3.72;;;1.58;;
20421;SDS011;10370;53.102;18.034;2024-02-23T07:25:30;4.53;;;1.50;;
20421;SDS011;10370;53.102;18.034;2024-02-23T07:30:53;2.95;;;1.40;;
20421;SDS011;10370;53.102;18.034;2024-02-23T07:36:16;3.75;;;1.35;;
20421;SDS011;10370;53.102;18.034;2024-02-23T07:41:39;5.85;;;2.20;;
20421;SDS011;10370;53.102;18.034;2024-02-23T07:47:02;2.33;;;1.60;;
20421;SDS011;10370;53.102;18.034;2024-02-23T07:52:25;1.67;;;1.15;;
20421;SDS011;10370;53.102;18.034;2024-02-23T07:57:48;2.22;;;1.30;;
20421;SDS011;10370;53.102;18.034;2024-02-23T08:03:11;2.60;;;1.40;;
20421;SDS011;10370;53.102;18.034;2024-02-23T08:08:34;2.38;;;1.30;;
20421;SDS011;10370;53.102;18.034;2024-02-23T08:13:57;2.28;;;1.20;;
20421;SDS011;10370;53.102;18.034;2024-02-23T08:19:20;2.95;;;1.42;;
20421;SDS011;10370;53.102;18.034;2024-02-23T08:24:43;2.10;;;1.23;;
20421;SDS011;10370;53.102;18.034;2024-02-23T08:30:06;3.70;;;1.20;;
20421;SDS011;10370;53.102;18.034;2024-02-23T08:35:29;1.92;;;1.05;;
20421;SDS011;10370;53.102;18.034;2024-02-23T08:40:53;3.13;;;1.25;;
20421;SDS011;10370;53.102;18.034;2024-02-23T08:46:16;2.00;;;1.17;;
20421;SDS011;10370;53.102;18.034;2024-02-23T08:51:41;4.97;;;1.00;;
20421;SDS011;10370;53.102;18.034;2024-02-23T08:57:04;3.50;;;1.65;;
20421;SDS011;10370;53.102;18.034;2024-02-23T09:02:30;5.13;;;1.73;;
20421;SDS011;10370;53.102;18.034;2024-02-23T09:07:55;3.28;;;1.80;;
20421;SDS011;10370;53.102;18.034;2024-02-23T09:13:18;5.28;;;2.15;;
20421;SDS011;10370;53.102;18.034;2024-02-23T09:18:41;4.65;;;2.10;;
20421;SDS011;10370;53.102;18.034;2024-02-23T09:24:04;7.07;;;2.65;;
20421;SDS011;10370;53.102;18.034;2024-02-23T09:29:27;4.30;;;1.60;;
20421;SDS011;10370;53.102;18.034;2024-02-23T09:34:50;2.53;;;1.27;;
20421;SDS011;10370;53.102;18.034;2024-02-23T09:40:14;2.58;;;1.40;;
20421;SDS011;10370;53.102;18.034;2024-02-23T09:45:38;2.22;;;1.30;;
20421;SDS011;10370;53.102;18.034;2024-02-23T09:51:01;3.30;;;1.50;;
20421;SDS011;10370;53.102;18.034;2024-02-23T09:56:26;5.75;;;1.73;;
20421;SDS011;10370;53.102;18.034;2024-02-23T10:01:50;2.72;;;1.35;;
20421;SDS011;10370;53.102;18.034;2024-02-23T10:07:14;3.45;;;1.45;;
20421;SDS011;10370;53.102;18.034;2024-02-23T10:12:40;6.55;;;1.38;;
20421;SDS011;10370;53.102;18.034;2024-02-23T10:18:04;3.13;;;1.80;;
20421;SDS011;10370;53.102;18.034;2024-02-23T10:23:26;3.60;;;1.63;;
20421;SDS011;10370;53.102;18.034;2024-02-23T10:28:51;2.97;;;1.42;;
20421;SDS011;10370;53.102;18.034;2024-02-23T10:34:13;2.92;;;1.60;;
20421;SDS011;10370;53.102;18.034;2024-02-23T10:39:40;3.30;;;1.40;;
20421;SDS011;10370;53.102;18.034;2024-02-23T10:45:05;3.00;;;1.30;;
20421;SDS011;10370;53.102;18.034;2024-02-23T10:50:28;3.58;;;1.00;;
20421;SDS011;10370;53.102;18.034;2024-02-23T10:55:56;1.30;;;0.90;;
20421;SDS011;10370;53.102;18.034;2024-02-23T11:01:22;1.58;;;1.15;;
20421;SDS011;10370;53.102;18.034;2024-02-23T11:06:52;1.77;;;1.10;;
20421;SDS011;10370;53.102;18.034;2024-02-23T11:12:24;1.15;;;0.80;;
20421;SDS011;10370;53.102;18.034;2024-02-23T11:17:49;1.85;;;0.82;;
20421;SDS011;10370;53.102;18.034;2024-02-23T11:23:13;3.97;;;0.93;;
20421;SDS011;10370;53.102;18.034;2024-02-23T11:28:56;1.80;;;0.80;;
20421;SDS011;10370;53.102;18.034;2024-02-23T11:34:22;3.05;;;0.85;;
20421;SDS011;10370;53.102;18.034;2024-02-23T11:39:48;1.73;;;0.80;;
20421;SDS011;10370;53.102;18.034;2024-02-23T11:45:11;2.63;;;1.10;;
20421;SDS011;10370;53.102;18.034;2024-02-23T11:50:39;2.47;;;1.08;;
20421;SDS011;10370;53.102;18.034;2024-02-23T11:56:05;3.33;;;1.23;;
20421;SDS011;10370;53.102;18.034;2024-02-23T12:01:29;1.17;;;0.80;;
20421;SDS011;10370;53.102;18.034;2024-02-23T12:06:52;5.95;;;1.00;;
20421;SDS011;10370;53.102;18.034;2024-02-23T12:12:15;4.20;;;1.20;;
20421;SDS011;10370;53.102;18.034;2024-02-23T12:17:46;2.30;;;1.00;;
20421;SDS011;10370;53.102;18.034;2024-02-23T12:23:11;2.80;;;1.00;;
20421;SDS011;10370;53.102;18.034;2024-02-23T12:28:34;2.05;;;1.00;;
20421;SDS011;10370;53.102;18.034;2024-02-23T12:33:58;0.90;;;0.80;;
20421;SDS011;10370;53.102;18.034;2024-02-23T12:39:21;4.45;;;1.20;;
20421;SDS011;10370;53.102;18.034;2024-02-23T12:44:43;2.13;;;1.20;;
20421;SDS011;10370;53.102;18.034;2024-02-23T12:50:06;3.40;;;1.23;;
20421;SDS011;10370;53.102;18.034;2024-02-23T12:55:33;1.75;;;1.15;;
20421;SDS011;10370;53.102;18.034;2024-02-23T13:00:57;4.72;;;1.10;;
20421;SDS011;10370;53.102;18.034;2024-02-23T13:06:20;2.08;;;1.02;;
20421;SDS011;10370;53.102;18.034;2024-02-23T13:11:43;1.48;;;1.00;;
20421;SDS011;10370;53.102;18.034;2024-02-23T13:17:08;3.15;;;1.20;;
20421;SDS011;10370;53.102;18.034;2024-02-23T13:22:30;0.90;;;0.70;;
20421;SDS011;10370;53.102;18.034;2024-02-23T13:27:54;1.17;;;0.70;;
20421;SDS011;10370;53.102;18.034;2024-02-23T13:33:17;1.23;;;0.90;;
20421;SDS011;10370;53.102;18.034;2024-02-23T13:38:47;1.30;;;0.80;;
20421;SDS011;10370;53.102;18.034;2024-02-23T13:44:13;1.63;;;0.70;;
20421;SDS011;10370;53.102;18.034;2024-02-23T13:49:36;1.23;;;0.82;;
20421;SDS011;10370;53.102;18.034;2024-02-23T13:54:59;17.67;;;4.70;;
20421;SDS011;10370;53.102;18.034;2024-02-23T14:00:22;9.00;;;4.22;;
20421;SDS011;10370;53.102;18.034;2024-02-23T14:05:48;5.10;;;3.50;;
20421;SDS011;10370;53.102;18.034;2024-02-23T14:11:11;3.67;;;1.20;;
20421;SDS011;10370;53.102;18.034;2024-02-23T14:16:35;3.53;;;1.92;;
20421;SDS011;10370;53.102;18.034;2024-02-23T14:21:58;1.73;;;1.02;;
20421;SDS011;10370;53.102;18.034;2024-02-23T14:27:21;1.92;;;1.13;;
20421;SDS011;10370;53.102;18.034;2024-02-23T14:32:43;2.40;;;0.98;;
20421;SDS011;10370;53.102;18.034;2024-02-23T14:38:07;1.65;;;0.93;;
20421;SDS011;10370;53.102;18.034;2024-02-23T14:43:29;1.60;;;0.80;;
20421;SDS011;10370;53.102;18.034;2024-02-23T14:48:52;2.50;;;1.15;;
20421;SDS011;10370;53.102;18.034;2024-02-23T14:54:15;2.38;;;1.10;;
20421;SDS011;10370;53.102;18.034;2024-02-23T14:59:44;2.60;;;1.10;;
20421;SDS011;10370;53.102;18.034;2024-02-23T15:05:09;4.10;;;1.70;;
20421;SDS011;10370;53.102;18.034;2024-02-23T15:10:31;4.50;;;1.90;;
20421;SDS011;10370;53.102;18.034;2024-02-23T15:15:57;3.30;;;1.67;;
20421;SDS011;10370;53.102;18.034;2024-02-23T15:21:22;3.42;;;1.70;;
20421;SDS011;10370;53.102;18.034;2024-02-23T15:26:45;4.70;;;1.80;;
20421;SDS011;10370;53.102;18.034;2024-02-23T15:32:08;6.53;;;2.42;;
20421;SDS011;10370;53.102;18.034;2024-02-23T15:37:32;20.52;;;8.32;;
20421;SDS011;10370;53.102;18.034;2024-02-23T15:42:56;133.77;;;49.65;;
20421;SDS011;10370;53.102;18.034;2024-02-23T15:48:21;102.32;;;52.75;;
20421;SDS011;10370;53.102;18.034;2024-02-23T15:53:46;43.20;;;22.88;;
20421;SDS011;10370;53.102;18.034;2024-02-23T15:59:11;32.38;;;14.13;;
20421;SDS011;10370;53.102;18.034;2024-02-23T16:04:34;17.15;;;8.82;;
20421;SDS011;10370;53.102;18.034;2024-02-23T16:10:00;14.32;;;5.55;;
20421;SDS011;10370;53.102;18.034;2024-02-23T16:15:23;21.60;;;8.00;;
20421;SDS011;10370;53.102;18.034;2024-02-23T16:20:48;30.65;;;13.95;;
20421;SDS011;10370;53.102;18.034;2024-02-23T16:26:13;25.58;;;12.43;;
20421;SDS011;10370;53.102;18.034;2024-02-23T16:31:38;29.95;;;12.80;;
20421;SDS011;10370;53.102;18.034;2024-02-23T16:37:03;45.60;;;20.33;;
20421;SDS011;10370;53.102;18.034;2024-02-23T16:42:26;24.75;;;12.80;;
20421;SDS011;10370;53.102;18.034;2024-02-23T16:47:49;22.83;;;9.27;;
20421;SDS011;10370;53.102;18.034;2024-02-23T16:53:12;24.92;;;8.27;;
20421;SDS011;10370;53.102;18.034;2024-02-23T16:58:35;20.05;;;6.72;;
20421;SDS011;10370;53.102;18.034;2024-02-23T17:04:01;16.52;;;6.78;;
20421;SDS011;10370;53.102;18.034;2024-02-23T17:09:24;18.98;;;10.02;;
20421;SDS011;10370;53.102;18.034;2024-02-23T17:14:50;25.77;;;12.18;;
20421;SDS011;10370;53.102;18.034;2024-02-23T17:20:13;31.02;;;15.20;;
20421;SDS011;10370;53.102;18.034;2024-02-23T17:25:36;82.18;;;33.97;;
20421;SDS011;10370;53.102;18.034;2024-02-23T17:36:34;105.03;;;42.28;;
20421;SDS011;10370;53.102;18.034;2024-02-23T17:42:07;143.52;;;53.00;;
20421;SDS011;10370;53.102;18.034;2024-02-23T17:47:30;78.78;;;28.35;;
20421;SDS011;10370;53.102;18.034;2024-02-23T17:52:55;73.03;;;29.48;;
20421;SDS011;10370;53.102;18.034;2024-02-23T17:58:18;56.88;;;20.38;;
20421;SDS011;10370;53.102;18.034;2024-02-23T18:03:42;70.60;;;29.63;;
20421;SDS011;10370;53.102;18.034;2024-02-23T18:09:13;40.85;;;15.73;;
20421;SDS011;10370;53.102;18.034;2024-02-23T18:14:49;31.73;;;12.77;;
20421;SDS011;10370;53.102;18.034;2024-02-23T18:20:13;80.57;;;36.03;;
20421;SDS011;10370;53.102;18.034;2024-02-23T18:25:36;95.80;;;40.80;;
20421;SDS011;10370;53.102;18.034;2024-02-23T18:31:01;56.25;;;27.17;;
20421;SDS011;10370;53.102;18.034;2024-02-23T18:36:25;49.05;;;21.35;;
20421;SDS011;10370;53.102;18.034;2024-02-23T18:47:28;63.05;;;25.02;;
20421;SDS011;10370;53.102;18.034;2024-02-23T18:53:36;66.07;;;27.08;;
20421;SDS011;10370;53.102;18.034;2024-02-23T18:59:05;71.70;;;29.00;;
20421;SDS011;10370;53.102;18.034;2024-02-23T19:04:28;78.57;;;29.33;;
20421;SDS011;10370;53.102;18.034;2024-02-23T19:09:52;87.75;;;36.40;;
20421;SDS011;10370;53.102;18.034;2024-02-23T19:15:15;85.43;;;35.53;;
20421;SDS011;10370;53.102;18.034;2024-02-23T19:20:38;97.72;;;41.80;;
20421;SDS011;10370;53.102;18.034;2024-02-23T19:26:07;108.00;;;43.97;;
20421;SDS011;10370;53.102;18.034;2024-02-23T19:31:32;89.68;;;39.33;;
20421;SDS011;10370;53.102;18.034;2024-02-23T19:36:55;104.93;;;43.03;;
20421;SDS011;10370;53.102;18.034;2024-02-23T19:42:26;96.35;;;40.30;;
20421;SDS011;10370;53.102;18.034;2024-02-23T19:47:51;68.47;;;30.83;;
20421;SDS011;10370;53.102;18.034;2024-02-23T19:53:14;91.00;;;40.30;;
20421;SDS011;10370;53.102;18.034;2024-02-23T19:58:36;107.55;;;43.20;;
20421;SDS011;10370;53.102;18.034;2024-02-23T20:04:07;234.45;;;82.47;;
20421;SDS011;10370;53.102;18.034;2024-02-23T20:10:08;76.47;;;32.72;;
20421;SDS011;10370;53.102;18.034;2024-02-23T20:15:34;66.68;;;29.77;;
20421;SDS011;10370;53.102;18.034;2024-02-23T20:20:56;73.15;;;32.83;;
20421;SDS011;10370;53.102;18.034;2024-02-23T20:26:19;60.00;;;27.67;;
20421;SDS011;10370;53.102;18.034;2024-02-23T20:31:42;64.95;;;30.17;;
20421;SDS011;10370;53.102;18.034;2024-02-23T20:37:06;75.80;;;31.27;;
20421;SDS011;10370;53.102;18.034;2024-02-23T20:42:33;62.05;;;27.05;;
20421;SDS011;10370;53.102;18.034;2024-02-23T20:47:56;60.28;;;23.55;;
20421;SDS011;10370;53.102;18.034;2024-02-23T20:53:20;53.25;;;24.45;;
20421;SDS011;10370;53.102;18.034;2024-02-23T21:04:36;109.53;;;40.10;;
20421;SDS011;10370;53.102;18.034;2024-02-23T21:10:24;156.85;;;52.83;;
20421;SDS011;10370;53.102;18.034;2024-02-23T21:15:46;85.82;;;31.67;;
20421;SDS011;10370;53.102;18.034;2024-02-23T21:21:09;49.08;;;20.73;;
20421;SDS011;10370;53.102;18.034;2024-02-23T21:26:32;46.63;;;19.83;;
20421;SDS011;10370;53.102;18.034;2024-02-23T21:31:55;49.42;;;19.83;;
20421;SDS011;10370;53.102;18.034;2024-02-23T21:37:18;59.20;;;25.67;;
20421;SDS011;10370;53.102;18.034;2024-02-23T21:42:41;69.65;;;28.65;;
20421;SDS011;10370;53.102;18.034;2024-02-23T21:48:06;43.08;;;18.02;;
20421;SDS011;10370;53.102;18.034;2024-02-23T21:53:35;38.47;;;16.00;;
20421;SDS011;10370;53.102;18.034;2024-02-23T21:59:04;42.58;;;17.13;;
20421;SDS011;10370;53.102;18.034;2024-02-23T22:04:27;86.03;;;39.92;;
20421;SDS011;10370;53.102;18.034;2024-02-23T22:09:50;43.80;;;20.52;;
20421;SDS011;10370;53.102;18.034;2024-02-23T22:15:17;45.30;;;20.98;;
20421;SDS011;10370;53.102;18.034;2024-02-23T22:20:50;41.47;;;19.55;;
20421;SDS011;10370;53.102;18.034;2024-02-23T22:26:14;41.40;;;19.25;;
20421;SDS011;10370;53.102;18.034;2024-02-23T22:31:45;37.42;;;18.05;;
20421;SDS011;10370;53.102;18.034;2024-02-23T22:37:08;40.65;;;19.13;;
20421;SDS011;10370;53.102;18.034;2024-02-23T22:42:32;345.27;;;91.70;;
20421;SDS011;10370;53.102;18.034;2024-02-23T22:47:59;127.97;;;42.53;;
20421;SDS011;10370;53.102;18.034;2024-02-23T22:53:22;54.72;;;23.83;;
20421;SDS011;10370;53.102;18.034;2024-02-23T22:58:45;54.53;;;25.02;;
20421;SDS011;10370;53.102;18.034;2024-02-23T23:04:07;54.25;;;24.65;;
20421;SDS011;10370;53.102;18.034;2024-02-23T23:09:30;78.22;;;29.23;;
20421;SDS011;10370;53.102;18.034;2024-02-23T23:14:58;171.23;;;43.78;;
20421;SDS011;10370;53.102;18.034;2024-02-23T23:20:21;110.75;;;33.10;;
20421;SDS011;10370;53.102;18.034;2024-02-23T23:25:43;73.90;;;28.80;;
20421;SDS011;10370;53.102;18.034;2024-02-23T23:36:59;66.75;;;29.60;;
20421;SDS011;10370;53.102;18.034;2024-02-23T23:42:21;74.55;;;34.22;;
20421;SDS011;10370;53.102;18.034;2024-02-23T23:47:51;85.90;;;41.50;;
20421;SDS011;10370;53.102;18.034;2024-02-23T23:53:19;81.68;;;39.45;;
20421;SDS011;10370;53.102;18.034;2024-02-23T23:59:03;63.97;;;30.33;;
